sensor_id;sensor_type;location;lat;lon;timestamp;pressure;altitude;pressure_sealevel;temperature;humidity
50123;BME280;36021;48.670;6.184;2023-02-15T00:01:09;100338.97;;;3.47;100.00
50123;BME280;36021;48.670;6.184;2023-02-15T00:03:35;100324.94;;;3.44;100.00
50123;BME280;36021;48.670;6.184;2023-02-15T00:06:00;100328.47;;;3.51;100.00
50123;BME280;36021;48.670;6.184;2023-02-15T00:08:26;100331.78;;;3.66;100.00
50123;BME280;36021;48.670;6.184;2023-02-15T00:11:02;100330.09;;;3.65;100.00
50123;BME280;36021;48.670;6.184;2023-02-15T00:13:28;100333.59;;;3.79;100.00
50123;BME280;36021;48.670;6.184;2023-02-15T00:15:59;100323.75;;;3.71;100.00
50123;BME280;36021;48.670;6.184;2023-02-15T00:18:25;100321.06;;;3.64;100.00
50123;BME280;36021;48.670;6.184;2023-02-15T00:20:50;100317.94;;;3.61;100.00
50123;BME280;36021;48.670;6.184;2023-02-15T00:23:16;100329.22;;;3.71;100.00
50123;BME280;36021;48.670;6.184;2023-02-15T00:25:41;100324.56;;;3.78;100.00
50123;BME280;36021;48.670;6.184;2023-02-15T00:28:07;100319.28;;;3.83;100.00
50123;BME280;36021;48.670;6.184;2023-02-15T00:30:34;100318.84;;;3.86;100.00
50123;BME280;36021;48.670;6.184;2023-02-15T00:33:00;100308.22;;;3.78;100.00
50123;BME280;36021;48.670;6.184;2023-02-15T00:35:26;100312.84;;;3.71;100.00
50123;BME280;36021;48.670;6.184;2023-02-15T00:37:52;100311.63;;;3.67;100.00
50123;BME280;36021;48.670;6.184;2023-02-15T00:40:19;100315.16;;;3.74;100.00
50123;BME280;36021;48.670;6.184;2023-02-15T00:42:44;100320.97;;;3.84;100.00
50123;BME280;36021;48.670;6.184;2023-02-15T00:45:10;100307.16;;;3.79;100.00
50123;BME280;36021;48.670;6.184;2023-02-15T00:47:36;100304.31;;;3.61;100.00
50123;BME280;36021;48.670;6.184;2023-02-15T00:50:01;100305.88;;;3.44;100.00
50123;BME280;36021;48.670;6.184;2023-02-15T00:52:28;100303.63;;;3.28;100.00
50123;BME280;36021;48.670;6.184;2023-02-15T00:54:56;100299.97;;;3.47;100.00
50123;BME280;36021;48.670;6.184;2023-02-15T00:57:22;100304.38;;;3.48;100.00
50123;BME280;36021;48.670;6.184;2023-02-15T00:59:48;100297.53;;;3.39;100.00
50123;BME280;36021;48.670;6.184;2023-02-15T01:02:14;100298.78;;;3.36;100.00
50123;BME280;36021;48.670;6.184;2023-02-15T01:04:40;100301.06;;;3.46;100.00
50123;BME280;36021;48.670;6.184;2023-02-15T01:07:06;100298.69;;;3.56;100.00
50123;BME280;36021;48.670;6.184;2023-02-15T01:09:34;100295.59;;;3.46;100.00
50123;BME280;36021;48.670;6.184;2023-02-15T01:12:02;100290.34;;;3.44;100.00
50123;BME280;36021;48.670;6.184;2023-02-15T01:14:27;100286.63;;;3.39;100.00
50123;BME280;36021;48.670;6.184;2023-02-15T01:16:53;100290.41;;;3.31;100.00
50123;BME280;36021;48.670;6.184;2023-02-15T01:19:18;100292.31;;;3.31;100.00
50123;BME280;36021;48.670;6.184;2023-02-15T01:21:44;100295.09;;;3.17;100.00
50123;BME280;36021;48.670;6.184;2023-02-15T01:24:13;100299.34;;;3.07;100.00
50123;BME280;36021;48.670;6.184;2023-02-15T01:26:39;100302.69;;;3.02;100.00
50123;BME280;36021;48.670;6.184;2023-02-15T01:29:04;100301.47;;;2.92;100.00
50123;BME280;36021;48.670;6.184;2023-02-15T01:31:30;100302.09;;;3.00;100.00
50123;BME280;36021;48.670;6.184;2023-02-15T01:33:57;100294.25;;;3.24;100.00
50123;BME280;36021;48.670;6.184;2023-02-15T01:36:23;100298.19;;;3.28;100.00
50123;BME280;36021;48.670;6.184;2023-02-15T01:38:51;100295.44;;;3.34;100.00
50123;BME280;36021;48.670;6.184;2023-02-15T01:41:17;100292.34;;;3.24;100.00
50123;BME280;36021;48.670;6.184;2023-02-15T01:43:50;100290.53;;;3.05;100.00
50123;BME280;36021;48.670;6.184;2023-02-15T01:46:18;100298.47;;;3.13;100.00
50123;BME280;36021;48.670;6.184;2023-02-15T01:48:46;100304.94;;;3.19;100.00
50123;BME280;36021;48.670;6.184;2023-02-15T01:51:12;100302.59;;;3.29;100.00
50123;BME280;36021;48.670;6.184;2023-02-15T01:53:41;100303.81;;;3.39;100.00
50123;BME280;36021;48.670;6.184;2023-02-15T01:56:15;100302.53;;;3.42;100.00
50123;BME280;36021;48.670;6.184;2023-02-15T01:58:47;100298.00;;;3.23;100.00
50123;BME280;36021;48.670;6.184;2023-02-15T02:01:16;100296.41;;;3.02;100.00
50123;BME280;36021;48.670;6.184;2023-02-15T02:06:17;100293.34;;;2.79;100.00
50123;BME280;36021;48.670;6.184;2023-02-15T02:08:44;100294.00;;;2.74;100.00
50123;BME280;36021;48.670;6.184;2023-02-15T02:11:11;100294.84;;;2.68;100.00
50123;BME280;36021;48.670;6.184;2023-02-15T02:13:41;100290.66;;;2.59;100.00
50123;BME280;36021;48.670;6.184;2023-02-15T02:29:09;100281.06;;;2.30;100.00
50123;BME280;36021;48.670;6.184;2023-02-15T02:36:42;100278.16;;;2.12;100.00
50123;BME280;36021;48.670;6.184;2023-02-15T02:41:49;100276.47;;;2.04;100.00
50123;BME280;36021;48.670;6.184;2023-02-15T02:44:20;100273.56;;;1.93;100.00
50123;BME280;36021;48.670;6.184;2023-02-15T02:46:50;100273.56;;;1.86;100.00
50123;BME280;36021;48.670;6.184;2023-02-15T02:49:27;100276.28;;;1.86;100.00
50123;BME280;36021;48.670;6.184;2023-02-15T02:52:00;100278.56;;;2.09;100.00
50123;BME280;36021;48.670;6.184;2023-02-15T02:54:28;100276.66;;;2.16;100.00
50123;BME280;36021;48.670;6.184;2023-02-15T02:56:55;100266.88;;;2.08;100.00
50123;BME280;36021;48.670;6.184;2023-02-15T02:59:32;100270.19;;;2.10;100.00
50123;BME280;36021;48.670;6.184;2023-02-15T03:02:05;100272.72;;;1.86;100.00
50123;BME280;36021;48.670;6.184;2023-02-15T03:04:36;100273.13;;;1.96;100.00
50123;BME280;36021;48.670;6.184;2023-02-15T03:07:07;100268.94;;;2.06;100.00
50123;BME280;36021;48.670;6.184;2023-02-15T03:09:39;100265.78;;;1.96;100.00
50123;BME280;36021;48.670;6.184;2023-02-15T03:12:12;100262.44;;;1.81;100.00
50123;BME280;36021;48.670;6.184;2023-02-15T03:14:42;100254.72;;;1.78;100.00
50123;BME280;36021;48.670;6.184;2023-02-15T03:17:09;100256.81;;;1.76;100.00
50123;BME280;36021;48.670;6.184;2023-02-15T03:19:39;100257.03;;;1.81;100.00
50123;BME280;36021;48.670;6.184;2023-02-15T03:22:11;100263.28;;;1.62;100.00
50123;BME280;36021;48.670;6.184;2023-02-15T03:24:42;100264.31;;;1.68;100.00
50123;BME280;36021;48.670;6.184;2023-02-15T03:27:14;100262.69;;;1.80;100.00
50123;BME280;36021;48.670;6.184;2023-02-15T03:29:43;100258.47;;;1.77;100.00
50123;BME280;36021;48.670;6.184;2023-02-15T03:32:14;100254.72;;;1.85;100.00
50123;BME280;36021;48.670;6.184;2023-02-15T03:34:42;100259.75;;;1.94;100.00
50123;BME280;36021;48.670;6.184;2023-02-15T03:42:29;100262.22;;;1.63;100.00
50123;BME280;36021;48.670;6.184;2023-02-15T03:44:58;100265.59;;;1.78;100.00
50123;BME280;36021;48.670;6.184;2023-02-15T03:47:26;100268.91;;;1.67;100.00
50123;BME280;36021;48.670;6.184;2023-02-15T03:49:55;100259.72;;;1.81;100.00
50123;BME280;36021;48.670;6.184;2023-02-15T03:52:23;100261.41;;;1.69;100.00
50123;BME280;36021;48.670;6.184;2023-02-15T03:54:51;100260.38;;;1.70;100.00
50123;BME280;36021;48.670;6.184;2023-02-15T03:57:21;100262.00;;;1.58;100.00
50123;BME280;36021;48.670;6.184;2023-02-15T04:00:15;100260.09;;;1.52;100.00
50123;BME280;36021;48.670;6.184;2023-02-15T04:05:45;100272.66;;;1.53;100.00
50123;BME280;36021;48.670;6.184;2023-02-15T04:08:12;100260.75;;;1.67;100.00
50123;BME280;36021;48.670;6.184;2023-02-15T04:10:38;100257.81;;;1.49;100.00
50123;BME280;36021;48.670;6.184;2023-02-15T04:13:19;100259.00;;;1.20;100.00
50123;BME280;36021;48.670;6.184;2023-02-15T04:15:44;100267.47;;;0.97;100.00
50123;BME280;36021;48.670;6.184;2023-02-15T04:18:38;100266.94;;;0.74;100.00
50123;BME280;36021;48.670;6.184;2023-02-15T04:21:23;100273.25;;;0.81;100.00
50123;BME280;36021;48.670;6.184;2023-02-15T04:24:08;100267.84;;;0.88;100.00
50123;BME280;36021;48.670;6.184;2023-02-15T04:26:52;100277.38;;;0.77;100.00
50123;BME280;36021;48.670;6.184;2023-02-15T04:29:18;100273.75;;;1.04;100.00
50123;BME280;36021;48.670;6.184;2023-02-15T04:31:44;100277.59;;;1.30;100.00
50123;BME280;36021;48.670;6.184;2023-02-15T04:34:11;100275.19;;;1.00;100.00
50123;BME280;36021;48.670;6.184;2023-02-15T04:36:37;100272.44;;;0.87;100.00
50123;BME280;36021;48.670;6.184;2023-02-15T04:39:03;100274.84;;;0.76;100.00
50123;BME280;36021;48.670;6.184;2023-02-15T04:41:30;100286.19;;;0.86;100.00
50123;BME280;36021;48.670;6.184;2023-02-15T04:43:55;100287.50;;;0.96;100.00
50123;BME280;36021;48.670;6.184;2023-02-15T04:46:22;100283.63;;;1.19;100.00
50123;BME280;36021;48.670;6.184;2023-02-15T04:48:48;100286.41;;;1.38;100.00
50123;BME280;36021;48.670;6.184;2023-02-15T04:51:13;100272.59;;;1.27;100.00
50123;BME280;36021;48.670;6.184;2023-02-15T04:53:39;100277.19;;;1.33;100.00
50123;BME280;36021;48.670;6.184;2023-02-15T04:56:06;100271.75;;;1.33;100.00
50123;BME280;36021;48.670;6.184;2023-02-15T04:58:31;100265.09;;;1.35;100.00
50123;BME280;36021;48.670;6.184;2023-02-15T05:00:57;100261.28;;;1.17;100.00
50123;BME280;36021;48.670;6.184;2023-02-15T05:03:23;100260.03;;;1.26;100.00
50123;BME280;36021;48.670;6.184;2023-02-15T05:05:48;100263.22;;;1.42;100.00
50123;BME280;36021;48.670;6.184;2023-02-15T05:08:14;100255.09;;;1.49;100.00
50123;BME280;36021;48.670;6.184;2023-02-15T05:10:40;100257.94;;;1.28;100.00
50123;BME280;36021;48.670;6.184;2023-02-15T05:13:05;100250.06;;;1.46;100.00
50123;BME280;36021;48.670;6.184;2023-02-15T05:15:31;100251.97;;;1.52;100.00
50123;BME280;36021;48.670;6.184;2023-02-15T05:17:56;100248.00;;;1.54;100.00
50123;BME280;36021;48.670;6.184;2023-02-15T05:20:22;100250.94;;;1.53;100.00
50123;BME280;36021;48.670;6.184;2023-02-15T05:22:47;100248.41;;;1.58;100.00
50123;BME280;36021;48.670;6.184;2023-02-15T05:25:13;100247.38;;;1.59;100.00
50123;BME280;36021;48.670;6.184;2023-02-15T05:27:58;100251.78;;;1.60;100.00
50123;BME280;36021;48.670;6.184;2023-02-15T05:33:24;100251.53;;;1.55;100.00
50123;BME280;36021;48.670;6.184;2023-02-15T05:35:50;100256.13;;;1.48;100.00
50123;BME280;36021;48.670;6.184;2023-02-15T05:38:16;100259.22;;;1.32;100.00
50123;BME280;36021;48.670;6.184;2023-02-15T05:40:44;100261.22;;;1.03;100.00
50123;BME280;36021;48.670;6.184;2023-02-15T05:43:09;100269.03;;;0.79;100.00
50123;BME280;36021;48.670;6.184;2023-02-15T05:45:35;100265.09;;;0.47;100.00
50123;BME280;36021;48.670;6.184;2023-02-15T05:48:00;100269.91;;;0.45;100.00
50123;BME280;36021;48.670;6.184;2023-02-15T05:50:26;100276.66;;;0.28;100.00
50123;BME280;36021;48.670;6.184;2023-02-15T05:52:52;100285.56;;;0.49;100.00
50123;BME280;36021;48.670;6.184;2023-02-15T05:55:18;100289.88;;;0.72;100.00
50123;BME280;36021;48.670;6.184;2023-02-15T05:57:44;100288.72;;;0.87;100.00
50123;BME280;36021;48.670;6.184;2023-02-15T06:00:09;100281.19;;;0.89;100.00
50123;BME280;36021;48.670;6.184;2023-02-15T06:02:38;100285.41;;;0.98;100.00
50123;BME280;36021;48.670;6.184;2023-02-15T06:05:04;100267.88;;;0.94;100.00
50123;BME280;36021;48.670;6.184;2023-02-15T06:07:30;100286.25;;;0.99;100.00
50123;BME280;36021;48.670;6.184;2023-02-15T06:09:55;100276.75;;;0.75;100.00
50123;BME280;36021;48.670;6.184;2023-02-15T06:12:21;100283.31;;;0.94;100.00
50123;BME280;36021;48.670;6.184;2023-02-15T06:14:46;100280.84;;;1.05;100.00
50123;BME280;36021;48.670;6.184;2023-02-15T06:17:12;100269.00;;;1.20;100.00
50123;BME280;36021;48.670;6.184;2023-02-15T06:19:37;100274.59;;;1.12;100.00
50123;BME280;36021;48.670;6.184;2023-02-15T06:22:03;100276.53;;;1.18;100.00
50123;BME280;36021;48.670;6.184;2023-02-15T06:24:28;100266.91;;;1.22;100.00
50123;BME280;36021;48.670;6.184;2023-02-15T06:26:54;100277.19;;;1.26;100.00
50123;BME280;36021;48.670;6.184;2023-02-15T06:29:19;100272.06;;;0.97;100.00
50123;BME280;36021;48.670;6.184;2023-02-15T06:31:45;100278.75;;;1.01;100.00
50123;BME280;36021;48.670;6.184;2023-02-15T06:34:11;100271.66;;;1.00;100.00
50123;BME280;36021;48.670;6.184;2023-02-15T06:36:37;100273.94;;;0.56;100.00
50123;BME280;36021;48.670;6.184;2023-02-15T06:39:03;100272.22;;;0.48;100.00
50123;BME280;36021;48.670;6.184;2023-02-15T06:41:30;100274.78;;;0.63;100.00
50123;BME280;36021;48.670;6.184;2023-02-15T06:43:56;100282.81;;;0.77;100.00
50123;BME280;36021;48.670;6.184;2023-02-15T06:46:21;100274.75;;;0.90;100.00
50123;BME280;36021;48.670;6.184;2023-02-15T06:48:47;100276.19;;;0.93;100.00
50123;BME280;36021;48.670;6.184;2023-02-15T06:51:12;100273.34;;;1.08;100.00
50123;BME280;36021;48.670;6.184;2023-02-15T06:53:38;100274.38;;;1.07;100.00
50123;BME280;36021;48.670;6.184;2023-02-15T06:56:10;100269.19;;;1.12;100.00
50123;BME280;36021;48.670;6.184;2023-02-15T06:58:36;100272.28;;;1.02;100.00
50123;BME280;36021;48.670;6.184;2023-02-15T07:01:02;100272.91;;;1.04;100.00
50123;BME280;36021;48.670;6.184;2023-02-15T07:03:28;100276.25;;;1.06;100.00
50123;BME280;36021;48.670;6.184;2023-02-15T07:05:54;100264.16;;;1.09;100.00
50123;BME280;36021;48.670;6.184;2023-02-15T07:08:20;100262.25;;;1.02;100.00
50123;BME280;36021;48.670;6.184;2023-02-15T07:10:45;100263.66;;;0.92;100.00
50123;BME280;36021;48.670;6.184;2023-02-15T07:13:11;100274.09;;;0.88;100.00
50123;BME280;36021;48.670;6.184;2023-02-15T07:15:37;100268.34;;;1.04;100.00
50123;BME280;36021;48.670;6.184;2023-02-15T07:18:02;100275.41;;;1.05;100.00
50123;BME280;36021;48.670;6.184;2023-02-15T07:20:28;100265.94;;;0.82;100.00
50123;BME280;36021;48.670;6.184;2023-02-15T07:22:54;100275.53;;;0.50;100.00
50123;BME280;36021;48.670;6.184;2023-02-15T07:25:19;100275.47;;;0.37;100.00
50123;BME280;36021;48.670;6.184;2023-02-15T07:27:45;100280.03;;;0.64;100.00
50123;BME280;36021;48.670;6.184;2023-02-15T07:30:12;100292.56;;;0.65;100.00
50123;BME280;36021;48.670;6.184;2023-02-15T07:32:41;100287.44;;;0.83;100.00
50123;BME280;36021;48.670;6.184;2023-02-15T07:35:27;100283.69;;;0.84;100.00
50123;BME280;36021;48.670;6.184;2023-02-15T07:37:53;100284.72;;;0.83;100.00
50123;BME280;36021;48.670;6.184;2023-02-15T07:40:19;100273.72;;;0.91;100.00
50123;BME280;36021;48.670;6.184;2023-02-15T07:42:44;100279.56;;;1.01;100.00
50123;BME280;36021;48.670;6.184;2023-02-15T07:45:10;100269.19;;;1.12;100.00
50123;BME280;36021;48.670;6.184;2023-02-15T07:47:35;100278.06;;;0.92;100.00
50123;BME280;36021;48.670;6.184;2023-02-15T07:50:01;100277.09;;;1.07;100.00
50123;BME280;36021;48.670;6.184;2023-02-15T07:52:27;100279.28;;;1.24;100.00
50123;BME280;36021;48.670;6.184;2023-02-15T07:54:52;100273.88;;;1.37;100.00
50123;BME280;36021;48.670;6.184;2023-02-15T07:57:21;100268.41;;;1.24;100.00
50123;BME280;36021;48.670;6.184;2023-02-15T07:59:46;100254.63;;;1.32;100.00
50123;BME280;36021;48.670;6.184;2023-02-15T08:02:12;100260.91;;;1.33;100.00
50123;BME280;36021;48.670;6.184;2023-02-15T08:04:37;100258.44;;;1.51;100.00
50123;BME280;36021;48.670;6.184;2023-02-15T08:07:04;100264.06;;;1.43;100.00
50123;BME280;36021;48.670;6.184;2023-02-15T08:09:30;100255.84;;;1.17;100.00
50123;BME280;36021;48.670;6.184;2023-02-15T08:11:55;100264.38;;;1.07;100.00
50123;BME280;36021;48.670;6.184;2023-02-15T08:14:22;100272.88;;;0.91;100.00
50123;BME280;36021;48.670;6.184;2023-02-15T08:16:48;100262.47;;;1.01;100.00
50123;BME280;36021;48.670;6.184;2023-02-15T08:19:25;100259.78;;;1.08;100.00
50123;BME280;36021;48.670;6.184;2023-02-15T08:21:51;100252.75;;;1.26;100.00
50123;BME280;36021;48.670;6.184;2023-02-15T08:24:18;100257.78;;;1.36;100.00
50123;BME280;36021;48.670;6.184;2023-02-15T08:26:44;100247.34;;;1.46;100.00
50123;BME280;36021;48.670;6.184;2023-02-15T08:29:14;100244.25;;;1.69;100.00
50123;BME280;36021;48.670;6.184;2023-02-15T08:31:41;100244.47;;;1.74;100.00
50123;BME280;36021;48.670;6.184;2023-02-15T08:34:09;100247.13;;;1.41;100.00
50123;BME280;36021;48.670;6.184;2023-02-15T08:36:34;100247.03;;;1.15;100.00
50123;BME280;36021;48.670;6.184;2023-02-15T08:39:01;100240.06;;;1.46;100.00
50123;BME280;36021;48.670;6.184;2023-02-15T08:41:35;100245.31;;;1.81;100.00
50123;BME280;36021;48.670;6.184;2023-02-15T08:44:02;100232.13;;;1.97;100.00
50123;BME280;36021;48.670;6.184;2023-02-15T08:46:29;100229.22;;;1.92;100.00
50123;BME280;36021;48.670;6.184;2023-02-15T08:48:55;100236.72;;;1.77;100.00
50123;BME280;36021;48.670;6.184;2023-02-15T08:51:25;100231.28;;;1.77;100.00
50123;BME280;36021;48.670;6.184;2023-02-15T08:53:52;100230.06;;;1.99;100.00
50123;BME280;36021;48.670;6.184;2023-02-15T08:56:20;100225.84;;;2.17;100.00
50123;BME280;36021;48.670;6.184;2023-02-15T08:58:45;100216.78;;;2.49;100.00
50123;BME280;36021;48.670;6.184;2023-02-15T09:01:15;100223.63;;;2.84;100.00
50123;BME280;36021;48.670;6.184;2023-02-15T09:03:43;100222.97;;;2.82;100.00
50123;BME280;36021;48.670;6.184;2023-02-15T09:06:09;100212.94;;;2.76;100.00
50123;BME280;36021;48.670;6.184;2023-02-15T09:08:34;100218.44;;;3.14;100.00
50123;BME280;36021;48.670;6.184;2023-02-15T09:11:19;100212.47;;;3.37;100.00
50123;BME280;36021;48.670;6.184;2023-02-15T09:13:51;100215.03;;;3.88;100.00
50123;BME280;36021;48.670;6.184;2023-02-15T09:16:16;100215.44;;;4.09;100.00
50123;BME280;36021;48.670;6.184;2023-02-15T09:18:42;100219.28;;;3.77;100.00
50123;BME280;36021;48.670;6.184;2023-02-15T09:21:10;100217.13;;;4.10;100.00
50123;BME280;36021;48.670;6.184;2023-02-15T09:23:36;100216.88;;;4.91;100.00
50123;BME280;36021;48.670;6.184;2023-02-15T09:26:05;100201.94;;;5.42;100.00
50123;BME280;36021;48.670;6.184;2023-02-15T09:28:31;100205.16;;;5.50;100.00
50123;BME280;36021;48.670;6.184;2023-02-15T09:33:36;100202.09;;;8.44;100.00
50123;BME280;36021;48.670;6.184;2023-02-15T09:36:03;100198.19;;;8.40;100.00
50123;BME280;36021;48.670;6.184;2023-02-15T09:38:29;100198.72;;;8.25;100.00
50123;BME280;36021;48.670;6.184;2023-02-15T09:41:08;100199.66;;;8.14;100.00
50123;BME280;36021;48.670;6.184;2023-02-15T09:48:43;100198.56;;;7.37;100.00
50123;BME280;36021;48.670;6.184;2023-02-15T09:56:24;100198.72;;;8.09;100.00
50123;BME280;36021;48.670;6.184;2023-02-15T09:58:56;100197.25;;;8.34;100.00
50123;BME280;36021;48.670;6.184;2023-02-15T10:04:18;100180.81;;;10.75;100.00
50123;BME280;36021;48.670;6.184;2023-02-15T10:09:38;100177.28;;;13.86;100.00
50123;BME280;36021;48.670;6.184;2023-02-15T10:12:11;100171.97;;;15.52;100.00
50123;BME280;36021;48.670;6.184;2023-02-15T10:17:15;100158.34;;;20.81;82.06
50123;BME280;36021;48.670;6.184;2023-02-15T10:24:55;100151.44;;;22.69;53.27
50123;BME280;36021;48.670;6.184;2023-02-15T10:27:27;100149.72;;;22.56;55.17
50123;BME280;36021;48.670;6.184;2023-02-15T10:30:10;100148.44;;;24.67;50.99
50123;BME280;36021;48.670;6.184;2023-02-15T10:32:45;100152.75;;;24.76;50.28
50123;BME280;36021;48.670;6.184;2023-02-15T10:35:20;100144.72;;;26.68;47.04
50123;BME280;36021;48.670;6.184;2023-02-15T10:40:40;100136.88;;;29.05;40.03
50123;BME280;36021;48.670;6.184;2023-02-15T10:43:20;100130.19;;;27.61;34.93
50123;BME280;36021;48.670;6.184;2023-02-15T10:58:24;100115.16;;;31.70;29.34
50123;BME280;36021;48.670;6.184;2023-02-15T11:06:23;100108.38;;;32.40;26.69
50123;BME280;36021;48.670;6.184;2023-02-15T11:08:55;100101.69;;;33.75;29.17
50123;BME280;36021;48.670;6.184;2023-02-15T11:11:23;100105.06;;;34.34;27.56
50123;BME280;36021;48.670;6.184;2023-02-15T11:13:53;100098.44;;;34.97;26.50
50123;BME280;36021;48.670;6.184;2023-02-15T11:16:30;100097.13;;;34.75;27.40
50123;BME280;36021;48.670;6.184;2023-02-15T11:18:58;100085.09;;;34.61;26.06
50123;BME280;36021;48.670;6.184;2023-02-15T11:21:32;100084.94;;;35.44;27.76
50123;BME280;36021;48.670;6.184;2023-02-15T11:24:07;100074.50;;;35.54;24.50
50123;BME280;36021;48.670;6.184;2023-02-15T11:26:37;100072.84;;;35.99;25.41
50123;BME280;36021;48.670;6.184;2023-02-15T11:31:49;100064.47;;;36.64;23.59
50123;BME280;36021;48.670;6.184;2023-02-15T11:34:34;100051.84;;;35.40;25.06
50123;BME280;36021;48.670;6.184;2023-02-15T11:37:07;100053.59;;;35.77;24.74
50123;BME280;36021;48.670;6.184;2023-02-15T11:39:34;100052.34;;;36.37;27.48
50123;BME280;36021;48.670;6.184;2023-02-15T11:42:05;100052.25;;;34.04;26.11
50123;BME280;36021;48.670;6.184;2023-02-15T11:44:32;100046.19;;;33.28;26.42
50123;BME280;36021;48.670;6.184;2023-02-15T11:47:00;100045.56;;;34.18;27.68
50123;BME280;36021;48.670;6.184;2023-02-15T11:49:27;100046.16;;;34.63;28.14
50123;BME280;36021;48.670;6.184;2023-02-15T11:51:55;100032.69;;;33.28;26.72
50123;BME280;36021;48.670;6.184;2023-02-15T11:54:24;100042.91;;;33.70;26.64
50123;BME280;36021;48.670;6.184;2023-02-15T11:56:51;100031.47;;;32.81;28.55
50123;BME280;36021;48.670;6.184;2023-02-15T11:59:18;100030.03;;;33.48;27.06
50123;BME280;36021;48.670;6.184;2023-02-15T12:01:46;100027.81;;;32.15;28.49
50123;BME280;36021;48.670;6.184;2023-02-15T12:04:22;100017.03;;;31.61;30.40
50123;BME280;36021;48.670;6.184;2023-02-15T12:06:51;100014.91;;;31.75;31.21
50123;BME280;36021;48.670;6.184;2023-02-15T12:09:30;100028.06;;;31.13;31.08
50123;BME280;36021;48.670;6.184;2023-02-15T12:14:48;100012.97;;;31.37;31.91
50123;BME280;36021;48.670;6.184;2023-02-15T12:17:14;100010.13;;;31.44;31.86
50123;BME280;36021;48.670;6.184;2023-02-15T12:19:41;100003.66;;;30.48;32.28
50123;BME280;36021;48.670;6.184;2023-02-15T12:22:10;100007.84;;;29.64;33.98
50123;BME280;36021;48.670;6.184;2023-02-15T12:24:44;100007.44;;;29.69;35.12
50123;BME280;36021;48.670;6.184;2023-02-15T12:29:40;100005.91;;;27.59;47.34
50123;BME280;36021;48.670;6.184;2023-02-15T12:32:09;99999.47;;;27.95;41.84
50123;BME280;36021;48.670;6.184;2023-02-15T12:34:37;99999.06;;;27.34;50.63
50123;BME280;36021;48.670;6.184;2023-02-15T12:37:17;99989.63;;;26.74;46.70
50123;BME280;36021;48.670;6.184;2023-02-15T12:40:19;99987.78;;;26.59;59.08
50123;BME280;36021;48.670;6.184;2023-02-15T12:42:42;99988.34;;;26.45;48.64
50123;BME280;36021;48.670;6.184;2023-02-15T12:47:46;99986.91;;;27.04;50.51
50123;BME280;36021;48.670;6.184;2023-02-15T12:50:31;99982.50;;;27.36;46.67
50123;BME280;36021;48.670;6.184;2023-02-15T12:53:08;99970.91;;;27.74;44.05
50123;BME280;36021;48.670;6.184;2023-02-15T12:55:37;99966.66;;;27.02;48.41
50123;BME280;36021;48.670;6.184;2023-02-15T12:58:07;99964.09;;;27.82;47.91
50123;BME280;36021;48.670;6.184;2023-02-15T13:00:33;99971.81;;;27.85;38.75
50123;BME280;36021;48.670;6.184;2023-02-15T13:02:59;99963.22;;;25.98;45.59
50123;BME280;36021;48.670;6.184;2023-02-15T13:08:01;99950.06;;;26.28;49.48
50123;BME280;36021;48.670;6.184;2023-02-15T13:10:33;99958.13;;;24.92;51.10
50123;BME280;36021;48.670;6.184;2023-02-15T13:12:59;99946.25;;;25.56;47.52
50123;BME280;36021;48.670;6.184;2023-02-15T13:17:59;99950.34;;;24.23;55.20
50123;BME280;36021;48.670;6.184;2023-02-15T13:20:27;99947.53;;;24.38;63.25
50123;BME280;36021;48.670;6.184;2023-02-15T13:22:56;99941.22;;;24.92;56.37
50123;BME280;36021;48.670;6.184;2023-02-15T13:25:27;99937.16;;;25.47;58.56
50123;BME280;36021;48.670;6.184;2023-02-15T13:27:54;99938.81;;;25.48;53.08
50123;BME280;36021;48.670;6.184;2023-02-15T13:30:24;99937.53;;;25.26;48.74
50123;BME280;36021;48.670;6.184;2023-02-15T13:32:52;99930.78;;;25.69;56.34
50123;BME280;36021;48.670;6.184;2023-02-15T13:35:21;99924.94;;;24.85;48.31
50123;BME280;36021;48.670;6.184;2023-02-15T13:43:06;99932.97;;;24.52;57.19
50123;BME280;36021;48.670;6.184;2023-02-15T13:46:03;99928.34;;;24.44;52.16
50123;BME280;36021;48.670;6.184;2023-02-15T14:14:39;99932.34;;;24.12;62.92
50123;BME280;36021;48.670;6.184;2023-02-15T14:19:45;99926.97;;;24.07;57.78
50123;BME280;36021;48.670;6.184;2023-02-15T14:22:31;99939.00;;;24.51;54.66
50123;BME280;36021;48.670;6.184;2023-02-15T14:30:14;99928.53;;;25.21;58.26
50123;BME280;36021;48.670;6.184;2023-02-15T14:32:42;99925.56;;;25.33;56.16
50123;BME280;36021;48.670;6.184;2023-02-15T14:35:14;99927.16;;;25.50;47.02
50123;BME280;36021;48.670;6.184;2023-02-15T14:43:34;99932.88;;;24.49;51.53
50123;BME280;36021;48.670;6.184;2023-02-15T14:46:14;99934.78;;;23.98;56.08
50123;BME280;36021;48.670;6.184;2023-02-15T14:48:43;99931.97;;;23.54;56.28
50123;BME280;36021;48.670;6.184;2023-02-15T14:51:09;99936.56;;;23.07;59.78
50123;BME280;36021;48.670;6.184;2023-02-15T14:53:38;99930.75;;;22.75;57.74
50123;BME280;36021;48.670;6.184;2023-02-15T15:01:26;99920.06;;;21.96;72.11
50123;BME280;36021;48.670;6.184;2023-02-15T15:03:53;99934.72;;;21.69;72.85
50123;BME280;36021;48.670;6.184;2023-02-15T15:06:23;99922.81;;;21.39;73.95
50123;BME280;36021;48.670;6.184;2023-02-15T15:08:58;99918.66;;;21.24;84.26
50123;BME280;36021;48.670;6.184;2023-02-15T15:13:55;99908.72;;;20.86;88.54
50123;BME280;36021;48.670;6.184;2023-02-15T15:19:09;99913.31;;;20.02;98.75
50123;BME280;36021;48.670;6.184;2023-02-15T15:29:44;99929.34;;;17.68;100.00
50123;BME280;36021;48.670;6.184;2023-02-15T15:32:11;99926.34;;;17.56;100.00
50123;BME280;36021;48.670;6.184;2023-02-15T15:37:45;99923.50;;;17.34;100.00
50123;BME280;36021;48.670;6.184;2023-02-15T15:43:19;99926.94;;;17.09;100.00
50123;BME280;36021;48.670;6.184;2023-02-15T15:48:32;99931.41;;;16.60;100.00